»·PEaware :: N1511H KLAS-KEGE

N1511H :: KLAS-KEGE

FLIGHT INFORMATION

Flight Status: Arrived
Operator: Privately registered:
United States
More flights under this callsign
Pilot: Phillip S. (23877)
Aircraft: EMBRAER PHENOM 300
(E55P)
More flights by this aircraft type
Origin: KLAS McCarran Intl
United States
Destination: KEGE Eagle Co Regl
United States
More flights between these airports :: More routes between these airports
Route: TRALR9 VERKN HVE JNC RIL RLG
File this flight plan on PilotEdge
Remarks: No Remarks
Altitude:
(Current/Filed)
35,000ft
Speed:
(Current/Filed)
450kts
Departed: 24-Mar-20 03:50 PM
Arrived: 24-Mar-20 05:07 PM
Distance/Time
Traveled:
445nm/1:17
Distance/Time
To Go:
Arrived

Flight Plot

Page will automatically refresh every two minutes.

Flight plan parsing failed; only flown route is shown


Map Options




Map Legend


Flown Route
Filed Route
Departure Airport
Arrival Airport
Navaid (VOR, NDB)
Fix

Horizontal Profiles

Position Reports

Time Latitude Longitude Heading Altitude Ground
Speed
24-Mar-20 15:19 36.084198 -115.169374 358 2118ft 0kts
24-Mar-20 15:20 36.084198 -115.169374 358 2118ft 0kts
24-Mar-20 15:21 36.084198 -115.169374 358 2118ft 0kts
24-Mar-20 15:22 36.084198 -115.169374 358 2118ft 0kts
24-Mar-20 15:23 36.084198 -115.169374 358 2118ft 0kts
24-Mar-20 15:24 36.084198 -115.169374 358 2118ft 0kts
24-Mar-20 15:25 36.084198 -115.169374 358 2118ft 0kts
24-Mar-20 15:26 36.084198 -115.169374 358 2118ft 0kts
24-Mar-20 15:27 36.084198 -115.169374 358 2118ft 0kts
24-Mar-20 15:28 36.084198 -115.169374 358 2118ft 0kts
24-Mar-20 15:29 36.084198 -115.169374 358 2118ft 0kts
24-Mar-20 15:30 36.084198 -115.169374 358 2118ft 0kts
24-Mar-20 15:31 36.084198 -115.169374 358 2118ft 0kts
24-Mar-20 15:32 36.084198 -115.169374 358 2118ft 0kts
24-Mar-20 15:33 36.084198 -115.169374 358 2118ft 0kts
24-Mar-20 15:34 36.084198 -115.169374 358 2118ft 0kts
24-Mar-20 15:35 36.084198 -115.169374 358 2118ft 0kts
24-Mar-20 15:36 36.084198 -115.169374 358 2118ft 0kts
24-Mar-20 15:37 36.084198 -115.169374 358 2118ft 0kts
24-Mar-20 15:38 36.084198 -115.169374 358 2118ft 0kts
24-Mar-20 15:39 36.084198 -115.169374 358 2118ft 0kts
24-Mar-20 15:40 36.084198 -115.169374 358 2118ft 0kts
24-Mar-20 15:41 36.083831 -115.169365 358 2118ft 2kts
24-Mar-20 15:42 36.084223 -115.168468 19 2118ft 9kts
24-Mar-20 15:43 36.086826 -115.166175 28 2118ft 16kts
24-Mar-20 15:44 36.090225 -115.163298 22 2118ft 14kts
24-Mar-20 15:45 36.094738 -115.160670 24 2118ft 20kts
24-Mar-20 15:46 36.099448 -115.158029 25 2118ft 10kts
24-Mar-20 15:47 36.099793 -115.157692 68 2118ft 0kts
24-Mar-20 15:48 36.099105 -115.156764 203 2118ft 0kts
24-Mar-20 15:49 36.084899 -115.164060 203 2749ft 143kts
24-Mar-20 15:50 36.024419 -115.199894 210 4434ft 256kts
24-Mar-20 15:51 35.988265 -115.263639 232 6872ft 241kts
24-Mar-20 15:52 35.926516 -115.284373 162 9705ft 245kts
24-Mar-20 15:53 35.864398 -115.232943 108 12561ft 336kts
24-Mar-20 15:54 35.864274 -115.109274 91 15393ft 380kts
24-Mar-20 15:55 35.900118 -114.984902 56 18209ft 402kts
24-Mar-20 15:56 35.956765 -114.862420 60 21012ft 416kts
24-Mar-20 15:57 36.007488 -114.730635 63 23166ft 437kts
24-Mar-20 15:58 36.061017 -114.591305 62 24947ft 458kts
24-Mar-20 15:59 36.116318 -114.447120 61 26748ft 470kts
24-Mar-20 16:00 36.172490 -114.300138 61 28536ft 477kts
24-Mar-20 16:01 36.207003 -114.140605 83 30284ft 486kts
24-Mar-20 16:02 36.226376 -113.971359 82 31339ft 504kts
24-Mar-20 16:03 36.246710 -113.797838 82 32353ft 515kts
24-Mar-20 16:05 36.267179 -113.620946 83 33366ft 522kts
24-Mar-20 16:06 36.287647 -113.441930 83 34369ft 525kts
24-Mar-20 16:07 36.307936 -113.262021 83 35101ft 534kts
24-Mar-20 16:08 36.379823 -113.114041 14 35117ft 492kts
24-Mar-20 16:09 36.496372 -113.016606 30 35112ft 521kts
24-Mar-20 16:10 36.605213 -112.895367 32 35125ft 528kts
24-Mar-20 16:11 36.715976 -112.775256 28 35124ft 527kts
24-Mar-20 16:12 36.829154 -112.657965 29 35131ft 529kts
24-Mar-20 16:13 36.942264 -112.539491 29 35154ft 530kts
24-Mar-20 16:14 37.055274 -112.420527 30 35133ft 531kts
24-Mar-20 16:15 37.168191 -112.301230 30 35091ft 531kts
24-Mar-20 16:16 37.280574 -112.181981 30 35100ft 530kts
24-Mar-20 16:17 37.392403 -112.060777 38 35076ft 539kts
24-Mar-20 16:18 37.495921 -111.924565 36 35141ft 534kts
24-Mar-20 16:19 37.599363 -111.790178 37 35071ft 535kts
24-Mar-20 16:20 37.702371 -111.654961 37 35129ft 534kts
24-Mar-20 16:21 37.805320 -111.519027 37 35086ft 534kts
24-Mar-20 16:22 37.907702 -111.383305 37 35110ft 534kts
24-Mar-20 16:23 38.010316 -111.246715 38 35080ft 533kts
24-Mar-20 16:23 38.094535 -111.134047 38 35099ft 526kts
24-Mar-20 16:25 38.211601 -110.977058 38 35076ft 525kts
24-Mar-20 16:26 38.311749 -110.841909 38 35030ft 524kts
24-Mar-20 16:26 38.394991 -110.729151 38 35010ft 525kts
24-Mar-20 16:27 38.468819 -110.565760 65 35083ft 543kts
24-Mar-20 16:29 38.536221 -110.356924 63 35049ft 543kts
24-Mar-20 16:29 38.586117 -110.209870 62 34998ft 544kts
24-Mar-20 16:30 38.646634 -110.032077 62 35005ft 544kts
24-Mar-20 16:31 38.706460 -109.855660 63 34956ft 536kts
24-Mar-20 16:32 38.765171 -109.681628 63 34960ft 532kts
24-Mar-20 16:33 38.823690 -109.507128 63 34971ft 532kts
24-Mar-20 16:34 38.881800 -109.332700 63 35028ft 531kts
24-Mar-20 16:35 38.939686 -109.157877 63 34984ft 532kts
24-Mar-20 16:36 38.997258 -108.982928 63 35058ft 531kts
24-Mar-20 16:37 39.054746 -108.807288 62 34988ft 533kts
24-Mar-20 16:38 39.126247 -108.642474 55 34987ft 528kts
24-Mar-20 16:39 39.198563 -108.478139 55 35028ft 527kts
24-Mar-20 16:40 39.270377 -108.314337 55 34989ft 510kts
24-Mar-20 16:41 39.339746 -108.155474 55 32774ft 505kts
24-Mar-20 16:42 39.407927 -107.998591 56 30582ft 496kts
24-Mar-20 16:43 39.474530 -107.844421 56 28384ft 485kts
24-Mar-20 16:44 39.538538 -107.694843 58 27209ft 454kts
24-Mar-20 16:45 39.591727 -107.552842 60 27061ft 422kts
24-Mar-20 16:46 39.643585 -107.414306 60 25553ft 436kts
24-Mar-20 16:47 39.697226 -107.271009 60 23755ft 441kts
24-Mar-20 16:48 39.750161 -107.129026 61 21958ft 430kts
24-Mar-20 16:49 39.799365 -106.996361 61 20156ft 387kts
24-Mar-20 16:50 39.844566 -106.874117 61 18366ft 365kts
24-Mar-20 16:51 39.887672 -106.757030 61 16563ft 353kts
24-Mar-20 16:52 39.929396 -106.643232 62 14767ft 344kts
24-Mar-20 16:53 39.968925 -106.535061 63 14003ft 310kts
24-Mar-20 16:54 40.003542 -106.437928 72 13981ft 283kts
24-Mar-20 16:55 39.969614 -106.364835 174 13985ft 239kts
24-Mar-20 16:56 39.916103 -106.394152 236 13990ft 208kts
24-Mar-20 16:57 39.888469 -106.459207 244 13993ft 205kts
24-Mar-20 16:58 39.846811 -106.506077 197 14001ft 218kts
24-Mar-20 16:59 39.789531 -106.530082 204 13908ft 221kts
24-Mar-20 17:00 39.726134 -106.558459 203 12937ft 244kts
24-Mar-20 17:01 39.685266 -106.623482 253 12265ft 240kts
24-Mar-20 17:02 39.670607 -106.706090 256 10814ft 232kts
24-Mar-20 17:03 39.660498 -106.784596 260 10258ft 196kts
24-Mar-20 17:04 39.652775 -106.848042 257 7853ft 164kts
24-Mar-20 17:05 39.644837 -106.897399 259 6616ft 114kts
24-Mar-20 17:06 39.641835 -106.922616 216 6518ft 19kts
24-Mar-20 17:07 39.640943 -106.922096 85 6518ft 11kts
24-Mar-20 17:08 39.641768 -106.914827 82 6518ft 25kts
24-Mar-20 17:09 39.641766 -106.909199 173 6518ft 4kts
24-Mar-20 17:10 39.641326 -106.909635 259 6518ft 0kts

Navigation Log

Ident Type
Flight plan parsing failed, navigation log unavailable